Paeonian Springs, Virginia
Current Conditions -  °F | °C
As of 4:35 PM on Wednesday 26 Nov 2014 (Local Time) from KJYO Reporting Station
Light Snow Light Snow  
Wind Chill: 27°   Ceiling: 1500
Heat Index: 34°   Visibility: 7mi
Dew Point: 34°   Wind: 8mph
Humidity: 100%   Direction: 330°NNW
Pressure: 29.97"   Gusts: NA
Location:  39.15°N, 77.62°W
Report Text: KJYO 262135Z AUTO 33007KT 7SM -SN OVC015 01/01 A2997 RMK AO2 P0005
Loading
Personal Weather Stations






























Interactive Weather Map New forecast layout! Learn more

10-Day Weather Forecast

Advertisements
Track Severe Weather on mobile